Mound Valley, Kansas
Current Conditions -  °F | °C
As of 12:52 PM on Saturday 20 Dec 2014 (Local Time) from KPPF Reporting Station
Overcast Overcast  
Wind Chill: 40°   Ceiling: 2000
Heat Index: 44°   Visibility: 10mi
Dew Point: 35°   Wind: 7mph
Humidity: 71%   Direction: 170°S
Pressure: 30.2"   Gusts: NA
Location:  37.21°N, 95.4°W
Report Text: KPPF 201852Z AUTO 17006KT 10SM OVC020 07/02 A3020 RMK AO2 SLP230 T00670017
Loading
Personal Weather Stations






























Interactive Weather Map New forecast layout! Learn more

10-Day Weather Forecast

Advertisements
Track Severe Weather on mobile